sensor_id;sensor_type;location;lat;lon;timestamp;temperature;humidity
5828;DHT22;42583;50.240;8.444;2022-12-16T00:08:34;-3.90;98.30
5828;DHT22;42583;50.240;8.444;2022-12-16T00:23:36;-4.00;99.90
5828;DHT22;42583;50.240;8.444;2022-12-16T00:38:38;-3.90;99.90
5828;DHT22;42583;50.240;8.444;2022-12-16T00:53:39;-3.90;99.90
5828;DHT22;42583;50.240;8.444;2022-12-16T01:08:39;-3.90;99.90
5828;DHT22;42583;50.240;8.444;2022-12-16T01:23:40;-4.00;99.90
5828;DHT22;42583;50.240;8.444;2022-12-16T01:38:42;-4.00;99.90
5828;DHT22;42583;50.240;8.444;2022-12-16T01:53:47;-4.10;99.90
5828;DHT22;42583;50.240;8.444;2022-12-16T02:08:52;-4.10;99.90
5828;DHT22;42583;50.240;8.444;2022-12-16T02:39:30;-4.10;99.90
5828;DHT22;42583;50.240;8.444;2022-12-16T02:54:32;-4.20;99.90
5828;DHT22;42583;50.240;8.444;2022-12-16T03:09:34;-4.20;99.90
5828;DHT22;42583;50.240;8.444;2022-12-16T03:24:36;-4.10;99.90
5828;DHT22;42583;50.240;8.444;2022-12-16T03:39:48;-4.10;99.90
5828;DHT22;42583;50.240;8.444;2022-12-16T03:54:50;-4.10;99.90
5828;DHT22;42583;50.240;8.444;2022-12-16T04:09:51;-4.10;99.90
5828;DHT22;42583;50.240;8.444;2022-12-16T04:24:52;-4.10;99.90
5828;DHT22;42583;50.240;8.444;2022-12-16T04:39:53;-4.10;99.90
5828;DHT22;42583;50.240;8.444;2022-12-16T04:55:12;-4.10;99.90
5828;DHT22;42583;50.240;8.444;2022-12-16T05:10:31;-4.20;99.90
5828;DHT22;42583;50.240;8.444;2022-12-16T05:25:50;-4.20;99.90
5828;DHT22;42583;50.240;8.444;2022-12-16T05:41:10;-4.30;99.90
5828;DHT22;42583;50.240;8.444;2022-12-16T05:56:29;-4.30;99.90
5828;DHT22;42583;50.240;8.444;2022-12-16T06:11:49;-4.30;99.90
5828;DHT22;42583;50.240;8.444;2022-12-16T06:27:08;-4.30;99.90
5828;DHT22;42583;50.240;8.444;2022-12-16T06:42:27;-4.30;99.90
5828;DHT22;42583;50.240;8.444;2022-12-16T06:57:47;-4.30;99.90
5828;DHT22;42583;50.240;8.444;2022-12-16T07:13:06;-4.40;99.90
5828;DHT22;42583;50.240;8.444;2022-12-16T07:28:26;-4.40;99.90
5828;DHT22;42583;50.240;8.444;2022-12-16T07:59:00;-4.40;99.90
5828;DHT22;42583;50.240;8.444;2022-12-16T08:14:52;-4.30;99.90
5828;DHT22;42583;50.240;8.444;2022-12-16T08:30:50;-4.10;99.90
5828;DHT22;42583;50.240;8.444;2022-12-16T08:46:09;-4.00;99.90
5828;DHT22;42583;50.240;8.444;2022-12-16T09:01:28;-3.60;99.90
5828;DHT22;42583;50.240;8.444;2022-12-16T09:16:48;-1.60;99.90
5828;DHT22;42583;50.240;8.444;2022-12-16T09:32:07;-0.10;99.80
5828;DHT22;42583;50.240;8.444;2022-12-16T09:47:49;1.30;93.60
5828;DHT22;42583;50.240;8.444;2022-12-16T10:03:20;0.90;88.90
5828;DHT22;42583;50.240;8.444;2022-12-16T10:18:56;3.10;83.20
5828;DHT22;42583;50.240;8.444;2022-12-16T10:34:19;4.70;68.60
5828;DHT22;42583;50.240;8.444;2022-12-16T10:49:38;5.70;61.70
5828;DHT22;42583;50.240;8.444;2022-12-16T11:04:57;6.90;59.50
5828;DHT22;42583;50.240;8.444;2022-12-16T11:20:19;9.20;54.50
5828;DHT22;42583;50.240;8.444;2022-12-16T11:35:41;10.00;49.40
5828;DHT22;42583;50.240;8.444;2022-12-16T11:51:02;7.90;50.20
5828;DHT22;42583;50.240;8.444;2022-12-16T12:22:02;1.60;52.60
5828;DHT22;42583;50.240;8.444;2022-12-16T12:37:26;0.20;54.70
5828;DHT22;42583;50.240;8.444;2022-12-16T13:08:51;-0.70;57.00
5828;DHT22;42583;50.240;8.444;2022-12-16T13:39:43;-1.30;61.30
5828;DHT22;42583;50.240;8.444;2022-12-16T13:55:20;-1.40;63.70
5828;DHT22;42583;50.240;8.444;2022-12-16T14:10:43;-1.00;68.10
5828;DHT22;42583;50.240;8.444;2022-12-16T14:26:02;-0.70;68.40
5828;DHT22;42583;50.240;8.444;2022-12-16T14:41:24;-1.10;70.20
5828;DHT22;42583;50.240;8.444;2022-12-16T14:56:43;-1.60;72.00
5828;DHT22;42583;50.240;8.444;2022-12-16T15:12:03;-2.30;75.10
5828;DHT22;42583;50.240;8.444;2022-12-16T15:27:36;-2.90;79.60
5828;DHT22;42583;50.240;8.444;2022-12-16T15:42:56;-3.40;85.40
5828;DHT22;42583;50.240;8.444;2022-12-16T15:58:30;-3.70;88.50
5828;DHT22;42583;50.240;8.444;2022-12-16T16:13:49;-3.90;90.90
5828;DHT22;42583;50.240;8.444;2022-12-16T16:29:09;-4.00;92.50
5828;DHT22;42583;50.240;8.444;2022-12-16T16:44:29;-4.10;95.00
5828;DHT22;42583;50.240;8.444;2022-12-16T16:59:48;-4.20;94.60
5828;DHT22;42583;50.240;8.444;2022-12-16T17:30:37;-4.40;94.50
5828;DHT22;42583;50.240;8.444;2022-12-16T17:46:04;-4.50;95.20
5828;DHT22;42583;50.240;8.444;2022-12-16T18:01:24;-4.50;95.80
5828;DHT22;42583;50.240;8.444;2022-12-16T18:16:43;-4.50;96.40
5828;DHT22;42583;50.240;8.444;2022-12-16T18:32:03;-4.50;96.90
5828;DHT22;42583;50.240;8.444;2022-12-16T18:47:22;-4.50;97.20
5828;DHT22;42583;50.240;8.444;2022-12-16T19:02:41;-4.60;96.90
5828;DHT22;42583;50.240;8.444;2022-12-16T19:18:01;-4.60;97.30
5828;DHT22;42583;50.240;8.444;2022-12-16T19:33:20;-4.60;98.10
5828;DHT22;42583;50.240;8.444;2022-12-16T19:48:40;-4.70;98.90
5828;DHT22;42583;50.240;8.444;2022-12-16T20:03:59;-4.70;99.90
5828;DHT22;42583;50.240;8.444;2022-12-16T20:19:18;-4.60;99.90
5828;DHT22;42583;50.240;8.444;2022-12-16T20:34:37;-4.50;99.90
5828;DHT22;42583;50.240;8.444;2022-12-16T20:49:56;-4.30;99.90
5828;DHT22;42583;50.240;8.444;2022-12-16T21:05:16;-4.20;99.90
5828;DHT22;42583;50.240;8.444;2022-12-16T21:20:36;-4.30;99.90
5828;DHT22;42583;50.240;8.444;2022-12-16T21:35:55;-4.20;99.90
5828;DHT22;42583;50.240;8.444;2022-12-16T21:51:14;-4.10;99.90
5828;DHT22;42583;50.240;8.444;2022-12-16T22:06:34;-4.00;99.90
5828;DHT22;42583;50.240;8.444;2022-12-16T22:21:53;-4.00;99.90
5828;DHT22;42583;50.240;8.444;2022-12-16T22:37:12;-4.10;99.90
5828;DHT22;42583;50.240;8.444;2022-12-16T22:52:32;-4.20;99.90
5828;DHT22;42583;50.240;8.444;2022-12-16T23:07:51;-4.40;99.90
5828;DHT22;42583;50.240;8.444;2022-12-16T23:23:21;-4.60;99.90
5828;DHT22;42583;50.240;8.444;2022-12-16T23:38:40;-4.80;99.80
5828;DHT22;42583;50.240;8.444;2022-12-16T23:54:00;-5.00;99.00
